createdAt,value
2022-10-07T00:01:01.489Z,51221.59
2022-10-07T00:03:30.089Z,51215.63
2022-10-07T00:06:05.970Z,51263.34
2022-10-07T00:08:36.129Z,51249.41
2022-10-07T00:11:11.102Z,51223.56
2022-10-07T00:13:40.598Z,51219.59
2022-10-07T00:16:30.288Z,51261.34
2022-10-07T00:19:00.842Z,51215.63
2022-10-07T00:21:32.743Z,51243.47
2022-10-07T00:24:01.062Z,51235.50
2022-10-07T00:26:31.503Z,51253.41
2022-10-07T00:28:59.190Z,51235.50
2022-10-07T00:31:30.414Z,51223.56
2022-10-07T00:33:58.522Z,51231.53
2022-10-07T00:36:32.391Z,51249.41
2022-10-07T00:39:06.038Z,51251.41
2022-10-07T00:41:48.250Z,51231.53
2022-10-07T00:44:45.707Z,51251.41
2022-10-07T00:47:31.348Z,51251.41
2022-10-07T00:50:03.195Z,51241.47
2022-10-07T00:52:35.313Z,51243.47
2022-10-07T00:55:10.293Z,51227.56
2022-10-07T00:57:38.467Z,51215.63
2022-10-07T01:00:07.835Z,51213.63
2022-10-07T01:02:36.919Z,51241.47
2022-10-07T01:05:23.961Z,51243.47
2022-10-07T01:07:53.986Z,51229.53
2022-10-07T01:10:24.382Z,51243.47
2022-10-07T01:13:23.932Z,51219.59
2022-10-07T01:16:12.763Z,51215.63
2022-10-07T01:19:07.748Z,51229.53
2022-10-07T01:22:21.288Z,51245.44
2022-10-07T01:25:26.839Z,51219.59
2022-10-07T01:28:01.280Z,51225.56
2022-10-07T01:30:31.803Z,51211.66
2022-10-07T01:33:05.006Z,51217.59
2022-10-07T01:35:35.637Z,51221.59
2022-10-07T01:38:09.839Z,51239.47
2022-10-07T01:40:57.133Z,51211.66
2022-10-07T01:43:24.969Z,51233.50
2022-10-07T01:45:53.540Z,51233.50
2022-10-07T01:48:20.722Z,51251.41
2022-10-07T01:50:51.141Z,51223.56
2022-10-07T01:53:56.557Z,51233.50
2022-10-07T01:56:46.387Z,51225.56
2022-10-07T01:59:51.278Z,51231.53
2022-10-07T02:02:43.563Z,51251.41
2022-10-07T02:05:54.026Z,51221.59
2022-10-07T02:08:46.842Z,51219.59
2022-10-07T02:11:23.909Z,51229.53
2022-10-07T02:14:00.072Z,51259.34
2022-10-07T02:16:44.751Z,51239.47
2022-10-07T02:19:36.624Z,51249.41
2022-10-07T02:22:06.044Z,51229.53
2022-10-07T02:24:35.694Z,51225.56
2022-10-07T02:27:13.892Z,51219.59
2022-10-07T02:29:45.476Z,51233.50
2022-10-07T02:32:19.110Z,51253.41
2022-10-07T02:34:52.897Z,51225.56
2022-10-07T02:37:26.071Z,51221.59
2022-10-07T02:39:55.308Z,51237.50
2022-10-07T02:43:00.354Z,51245.44
2022-10-07T02:46:02.251Z,51213.63
2022-10-07T02:48:36.712Z,51253.41
2022-10-07T02:51:10.675Z,51253.41
2022-10-07T02:53:39.657Z,51255.38
2022-10-07T02:56:08.048Z,51233.50
2022-10-07T02:58:36.507Z,51227.56
2022-10-07T03:01:06.017Z,51231.53
2022-10-07T03:03:33.197Z,51233.50
2022-10-07T03:06:05.172Z,51223.56
2022-10-07T03:08:33.226Z,51231.53
2022-10-07T03:11:01.274Z,51225.56
2022-10-07T03:13:29.479Z,51225.56
2022-10-07T03:16:00.952Z,51229.53
2022-10-07T03:18:29.655Z,51245.44
2022-10-07T03:21:11.998Z,51229.53
2022-10-07T03:23:39.141Z,51209.66
2022-10-07T03:26:06.493Z,51267.31
2022-10-07T03:28:38.042Z,51195.75
2022-10-07T03:31:12.185Z,51237.50
2022-10-07T03:33:44.691Z,51259.34
2022-10-07T03:36:13.316Z,51217.59
2022-10-07T03:38:42.901Z,51241.47
2022-10-07T03:41:11.801Z,51223.56
2022-10-07T03:43:39.353Z,51241.47
2022-10-07T03:46:07.604Z,51221.59
2022-10-07T03:48:37.057Z,51241.47
2022-10-07T03:51:04.323Z,51243.47
2022-10-07T03:53:34.007Z,51243.47
2022-10-07T03:56:02.208Z,51239.47
2022-10-07T03:58:30.947Z,51193.75
2022-10-07T04:01:08.679Z,51217.59
2022-10-07T04:03:37.929Z,51231.53
2022-10-07T04:06:06.143Z,51241.47
2022-10-07T04:08:35.245Z,51215.63
2022-10-07T04:11:04.988Z,51193.75
2022-10-07T04:13:34.155Z,51223.56
2022-10-07T04:16:11.346Z,51211.66
2022-10-07T04:18:39.028Z,51217.59
2022-10-07T04:21:07.430Z,51233.50
2022-10-07T04:23:37.002Z,51225.56
2022-10-07T04:26:09.887Z,51219.59
2022-10-07T04:28:38.779Z,51229.53
2022-10-07T04:31:12.963Z,51223.56
2022-10-07T04:33:44.128Z,51241.47
2022-10-07T04:36:13.950Z,51217.59
2022-10-07T04:38:50.515Z,51205.69
2022-10-07T04:41:20.253Z,51203.69
2022-10-07T04:43:57.375Z,51225.56
2022-10-07T04:46:28.495Z,51237.50
2022-10-07T04:49:01.336Z,51233.50
2022-10-07T04:51:31.272Z,51233.50
2022-10-07T04:53:59.894Z,51227.56
2022-10-07T04:56:35.666Z,51247.44
2022-10-07T04:59:06.087Z,51217.59
2022-10-07T05:01:33.875Z,51237.50
2022-10-07T05:04:01.092Z,51217.59
2022-10-07T05:06:29.876Z,51241.47
2022-10-07T05:08:56.923Z,51229.53
2022-10-07T05:11:25.970Z,51253.41
2022-10-07T05:14:06.110Z,51221.59
2022-10-07T05:16:33.412Z,51219.59
2022-10-07T05:19:00.592Z,51233.50
2022-10-07T05:21:28.206Z,51221.59
2022-10-07T05:23:55.283Z,51211.66
2022-10-07T05:26:28.706Z,51229.53
2022-10-07T05:28:58.803Z,51227.56
2022-10-07T05:31:32.610Z,51231.53
2022-10-07T05:34:02.945Z,51239.47
2022-10-07T05:36:30.487Z,51245.44
2022-10-07T05:38:59.713Z,51225.56
2022-10-07T05:41:45.535Z,51225.56
2022-10-07T05:44:14.236Z,51219.59
2022-10-07T05:46:42.428Z,51207.66
2022-10-07T05:49:10.191Z,51241.47
2022-10-07T05:51:37.481Z,51229.53
2022-10-07T05:54:05.970Z,51247.44
2022-10-07T05:56:39.646Z,51245.44
2022-10-07T05:59:07.333Z,51243.47
2022-10-07T06:01:34.786Z,51253.41
2022-10-07T06:04:08.177Z,51241.47
2022-10-07T06:06:38.779Z,51241.47
2022-10-07T06:09:27.540Z,51213.63
2022-10-07T06:12:14.183Z,51253.41
2022-10-07T06:14:42.124Z,51245.44
2022-10-07T06:17:09.929Z,51235.50
2022-10-07T06:19:38.306Z,51245.44
2022-10-07T06:22:05.889Z,51263.34
2022-10-07T06:24:35.451Z,51253.41
2022-10-07T06:27:03.547Z,51263.34
2022-10-07T06:29:31.414Z,51255.38
2022-10-07T06:31:59.721Z,51251.41
2022-10-07T06:34:27.686Z,51259.34
2022-10-07T06:36:58.047Z,51253.41
2022-10-07T06:39:25.846Z,51229.53
2022-10-07T06:41:54.622Z,51253.41
2022-10-07T06:44:39.657Z,51249.41
2022-10-07T06:47:11.864Z,51275.25
2022-10-07T06:49:40.755Z,51261.34
2022-10-07T06:52:07.826Z,51243.47
2022-10-07T06:54:35.786Z,51261.34
2022-10-07T06:57:15.421Z,51265.31
2022-10-07T06:59:51.688Z,51261.34
2022-10-07T07:02:19.644Z,51253.41
2022-10-07T07:04:47.794Z,51273.28
2022-10-07T07:07:15.266Z,51255.38
2022-10-07T07:09:42.476Z,51277.25
2022-10-07T07:12:11.255Z,51267.31
2022-10-07T07:14:44.194Z,51277.25
2022-10-07T07:17:16.048Z,51255.38
2022-10-07T07:19:43.127Z,51259.34
2022-10-07T07:22:10.320Z,51277.25
2022-10-07T07:24:38.977Z,51261.34
2022-10-07T07:27:06.754Z,51269.31
2022-10-07T07:29:34.333Z,51293.16
2022-10-07T07:32:04.503Z,51277.25
2022-10-07T07:34:38.177Z,51277.25
2022-10-07T07:37:07.149Z,51269.31
2022-10-07T07:39:39.327Z,51313.03
2022-10-07T07:42:12.621Z,51295.16
2022-10-07T07:44:40.201Z,51273.28
2022-10-07T07:47:12.811Z,51285.19
2022-10-07T07:49:40.276Z,51285.19
2022-10-07T07:52:10.730Z,51322.97
2022-10-07T07:54:43.880Z,51321.00
2022-10-07T07:57:11.823Z,51328.94
2022-10-07T07:59:39.075Z,51324.97
2022-10-07T08:02:08.028Z,51328.94
2022-10-07T08:04:37.752Z,51326.94
2022-10-07T08:07:05.400Z,51313.03
2022-10-07T08:09:33.015Z,51328.94
2022-10-07T08:12:00.559Z,51317.00
2022-10-07T08:14:28.195Z,51307.06
2022-10-07T08:16:57.439Z,51328.94
2022-10-07T08:19:29.523Z,51315.03
2022-10-07T08:21:58.235Z,51330.94
2022-10-07T08:24:27.593Z,51322.97
2022-10-07T08:26:54.792Z,51322.97
2022-10-07T08:29:22.974Z,51334.91
2022-10-07T08:31:50.320Z,51324.97
2022-10-07T08:34:17.363Z,51336.91
2022-10-07T08:36:47.399Z,51358.75
2022-10-07T08:39:15.458Z,51313.03
2022-10-07T08:42:36.704Z,51321.00
2022-10-07T08:45:08.549Z,51321.00
2022-10-07T08:47:45.446Z,51332.91
2022-10-07T08:50:45.855Z,51321.00
2022-10-07T08:53:21.361Z,51330.94
2022-10-07T08:56:07.903Z,51336.91
2022-10-07T08:58:52.045Z,51360.75
2022-10-07T09:01:53.259Z,51336.91
2022-10-07T09:04:54.765Z,51328.94
2022-10-07T09:07:48.208Z,51354.78
2022-10-07T09:10:31.584Z,51370.69
2022-10-07T09:13:14.159Z,51360.75
2022-10-07T09:16:00.663Z,51336.91
2022-10-07T09:18:41.144Z,51358.75
2022-10-07T09:21:17.195Z,51374.66
2022-10-07T09:23:45.840Z,51352.78
2022-10-07T09:26:16.847Z,51374.66
2022-10-07T09:28:44.081Z,51388.59
2022-10-07T09:31:15.370Z,51374.66
2022-10-07T09:33:45.871Z,51392.56
2022-10-07T09:36:18.283Z,51368.69
2022-10-07T09:38:49.782Z,51388.59
2022-10-07T09:41:21.452Z,51390.56
2022-10-07T09:44:16.446Z,51380.63
2022-10-07T09:46:53.670Z,51392.56
2022-10-07T09:49:29.597Z,51394.53
2022-10-07T09:52:06.463Z,51388.59
2022-10-07T09:54:36.084Z,51392.56
2022-10-07T09:57:05.672Z,51376.66
2022-10-07T09:59:37.396Z,51384.59
2022-10-07T10:02:13.857Z,51410.44
2022-10-07T10:04:57.361Z,51398.53
2022-10-07T10:07:36.120Z,51432.31
2022-10-07T10:10:06.676Z,51366.72
2022-10-07T10:12:45.676Z,51440.28
2022-10-07T10:15:39.607Z,51394.53
2022-10-07T10:18:36.239Z,51402.50
2022-10-07T10:21:36.690Z,51422.38
2022-10-07T10:24:10.425Z,51406.47
2022-10-07T10:27:01.606Z,51408.47
2022-10-07T10:29:42.474Z,51412.44
2022-10-07T10:32:33.979Z,51426.34
2022-10-07T10:35:09.923Z,51416.41
2022-10-07T10:38:23.407Z,51448.22
2022-10-07T10:41:06.506Z,51436.28
2022-10-07T10:44:32.291Z,51472.09
2022-10-07T10:47:31.274Z,51442.25
2022-10-07T10:50:16.448Z,51468.09
2022-10-07T10:53:17.121Z,51484.00
2022-10-07T10:56:06.518Z,51470.09
2022-10-07T10:59:09.421Z,51489.97
2022-10-07T11:01:43.030Z,51484.00
2022-10-07T11:04:41.342Z,51474.06
2022-10-07T11:07:25.668Z,51539.69
2022-10-07T11:10:06.265Z,51541.66
2022-10-07T11:12:42.093Z,51587.41
2022-10-07T11:15:32.824Z,51643.06
2022-10-07T11:18:10.600Z,51754.41
2022-10-07T11:20:48.195Z,51895.59
2022-10-07T11:24:11.688Z,52048.69
2022-10-07T11:26:57.390Z,52038.75
2022-10-07T11:29:48.387Z,51997.00
2022-10-07T11:32:26.975Z,51897.56
2022-10-07T11:35:45.103Z,51929.38
2022-10-07T11:38:14.831Z,52080.50
2022-10-07T11:40:54.892Z,52114.31
2022-10-07T11:43:38.203Z,52036.75
2022-10-07T11:46:33.480Z,52064.59
2022-10-07T11:49:36.314Z,52305.22
2022-10-07T11:52:08.096Z,52458.34
2022-10-07T11:55:00.701Z,52523.97
2022-10-07T11:57:36.602Z,52577.66
2022-10-07T12:00:31.900Z,52565.75
2022-10-07T12:03:17.871Z,52525.97
2022-10-07T12:05:51.309Z,52685.06
2022-10-07T12:08:35.597Z,52649.25
2022-10-07T12:11:12.459Z,52629.38
2022-10-07T12:13:45.632Z,52609.50
2022-10-07T12:16:31.418Z,52476.25
2022-10-07T12:19:10.793Z,52635.34
2022-10-07T12:21:59.693Z,52637.34
2022-10-07T12:24:28.435Z,52822.31
2022-10-07T12:26:58.010Z,52848.16
2022-10-07T12:29:34.166Z,52949.59
2022-10-07T12:32:01.811Z,52947.59
2022-10-07T12:34:40.237Z,52724.84
2022-10-07T12:37:39.024Z,52273.41
2022-10-07T12:40:18.280Z,52490.16
2022-10-07T12:42:55.942Z,52424.53
2022-10-07T12:45:27.049Z,52392.72
2022-10-07T12:47:58.305Z,52414.59
2022-10-07T12:50:26.970Z,52382.78
2022-10-07T12:52:56.848Z,52243.56
2022-10-07T12:55:32.533Z,52343.00
2022-10-07T12:58:20.407Z,52259.47
2022-10-07T13:01:33.966Z,52438.47
2022-10-07T13:04:42.253Z,52478.22
2022-10-07T13:07:46.291Z,52422.56
2022-10-07T13:10:37.976Z,52424.53
2022-10-07T13:13:26.239Z,52346.97
2022-10-07T13:16:22.116Z,52187.88
2022-10-07T13:19:03.278Z,52331.06
2022-10-07T13:21:51.971Z,52287.31
2022-10-07T13:24:24.986Z,52273.41
2022-10-07T13:26:52.350Z,52343.00
2022-10-07T13:29:30.911Z,52390.72
2022-10-07T13:32:17.971Z,52259.47
2022-10-07T13:34:46.467Z,52333.06
2022-10-07T13:37:30.423Z,52307.22
2022-10-07T13:40:19.727Z,52162.03
2022-10-07T13:42:54.652Z,52205.78
2022-10-07T13:45:22.229Z,52132.22
2022-10-07T13:47:50.087Z,52124.25
2022-10-07T13:50:23.074Z,52100.41
2022-10-07T13:52:51.696Z,52152.09
2022-10-07T13:55:34.304Z,52207.78
2022-10-07T13:58:05.450Z,52173.97
2022-10-07T14:00:44.728Z,52193.84
2022-10-07T14:03:17.061Z,52225.66
2022-10-07T14:05:53.097Z,52275.38
2022-10-07T14:08:24.333Z,52400.66
2022-10-07T14:11:18.934Z,52364.88
2022-10-07T14:13:46.046Z,52364.88
2022-10-07T14:16:22.222Z,52295.28
2022-10-07T14:18:50.617Z,52279.38
2022-10-07T14:21:18.825Z,52187.88
2022-10-07T14:23:47.095Z,52181.94
2022-10-07T14:26:16.211Z,52313.16
2022-10-07T14:28:43.700Z,52436.47
2022-10-07T14:31:39.862Z,52430.50
2022-10-07T14:34:38.502Z,52311.19
2022-10-07T14:37:19.518Z,52281.34
2022-10-07T14:39:50.007Z,52339.03
2022-10-07T14:42:36.328Z,52374.81
2022-10-07T14:45:08.263Z,52237.59
2022-10-07T14:47:38.161Z,52150.09
2022-10-07T14:50:06.087Z,52120.28
2022-10-07T14:52:44.323Z,51923.41
2022-10-07T14:55:29.546Z,51792.19
2022-10-07T14:57:56.571Z,51762.38
2022-10-07T15:00:34.891Z,51738.50
2022-10-07T15:03:06.101Z,51706.69
2022-10-07T15:05:33.635Z,51698.75
2022-10-07T15:08:01.651Z,51698.75
2022-10-07T15:10:28.797Z,51676.88
2022-10-07T15:12:59.599Z,51664.94
2022-10-07T15:15:26.609Z,51615.22
2022-10-07T15:17:53.787Z,51625.19
2022-10-07T15:20:21.324Z,51611.25
2022-10-07T15:22:50.757Z,51571.50
2022-10-07T15:25:19.395Z,51599.31
2022-10-07T15:27:46.505Z,51559.56
2022-10-07T15:30:14.389Z,51589.38
2022-10-07T15:32:41.534Z,51603.31
2022-10-07T17:31:14.912Z,51434.31
2022-10-07T17:33:43.797Z,51432.31
2022-10-07T17:36:12.756Z,51452.19
2022-10-07T17:38:43.092Z,51432.31
2022-10-07T17:41:32.138Z,51458.16
2022-10-07T17:44:02.095Z,51418.41
2022-10-07T17:46:33.266Z,51450.22
2022-10-07T17:49:02.157Z,51448.22
2022-10-07T17:51:32.340Z,51416.41
2022-10-07T17:54:01.992Z,51430.34
2022-10-07T17:56:32.045Z,51410.44
2022-10-07T17:58:59.733Z,51444.25
2022-10-07T18:01:31.176Z,51432.31
2022-10-07T18:04:05.333Z,51410.44
2022-10-07T18:06:36.050Z,51390.56
2022-10-07T18:09:09.263Z,51408.47
2022-10-07T18:11:55.489Z,51432.31
2022-10-07T18:14:41.763Z,51422.38
2022-10-07T18:17:10.690Z,51414.44
2022-10-07T18:19:39.749Z,51366.72
2022-10-07T18:22:07.327Z,51386.59
2022-10-07T18:24:34.879Z,51392.56
2022-10-07T18:27:03.171Z,51410.44
2022-10-07T18:29:33.674Z,51386.59
2022-10-07T18:32:01.519Z,51374.66
2022-10-07T18:34:28.731Z,51388.59
2022-10-07T18:36:57.221Z,51382.63
2022-10-07T18:39:29.504Z,51376.66
2022-10-07T18:41:57.965Z,51362.75
2022-10-07T18:44:25.592Z,51380.63
2022-10-07T18:46:53.432Z,51396.53
2022-10-07T18:49:20.468Z,51364.72
2022-10-07T18:51:50.666Z,51376.66
2022-10-07T18:54:21.257Z,51332.91
2022-10-07T18:56:49.575Z,51352.78
2022-10-07T18:59:18.474Z,51356.78
2022-10-07T19:01:50.124Z,51372.69
2022-10-07T19:04:18.213Z,51372.69
2022-10-07T19:06:46.210Z,51358.75
2022-10-07T19:09:18.620Z,51340.88
2022-10-07T19:11:46.022Z,51358.75
2022-10-07T19:14:14.055Z,51348.81
2022-10-07T19:16:48.999Z,51336.91
2022-10-07T19:19:22.630Z,51364.72
2022-10-07T19:21:53.887Z,51338.88
2022-10-07T19:24:41.972Z,51344.84
2022-10-07T19:27:09.144Z,51366.72
2022-10-07T19:29:36.168Z,51330.94
2022-10-07T19:32:07.814Z,51360.75
2022-10-07T19:34:35.603Z,51360.75
2022-10-07T19:37:02.891Z,51338.88
2022-10-07T19:39:30.629Z,51334.91
2022-10-07T19:41:58.838Z,51324.97
2022-10-07T19:44:26.120Z,51324.97
2022-10-07T19:46:54.334Z,51326.94
2022-10-07T19:49:22.339Z,51324.97
2022-10-07T19:51:49.414Z,51336.91
2022-10-07T19:54:16.445Z,51328.94
2022-10-07T19:56:44.525Z,51354.78
2022-10-07T19:59:13.994Z,51330.94
2022-10-07T20:01:44.300Z,51328.94
2022-10-07T20:04:21.895Z,51344.84
2022-10-07T20:06:49.307Z,51352.78
2022-10-07T20:09:18.785Z,51344.84
2022-10-07T20:11:49.557Z,51352.78
2022-10-07T20:14:16.641Z,51330.94
2022-10-07T20:16:44.122Z,51321.00
2022-10-07T20:19:18.494Z,51332.91
2022-10-07T20:21:46.272Z,51340.88
2022-10-07T20:24:16.227Z,51362.75
2022-10-07T20:26:44.370Z,51340.88
2022-10-07T20:29:13.862Z,51328.94
2022-10-07T20:31:42.615Z,51352.78
2022-10-07T20:34:15.101Z,51317.00
2022-10-07T20:36:42.739Z,51321.00
2022-10-07T20:39:37.779Z,51321.00
2022-10-07T20:42:21.307Z,51319.00
2022-10-07T20:44:49.858Z,51334.91
2022-10-07T20:47:18.007Z,51330.94
2022-10-07T20:49:45.278Z,51315.03
2022-10-07T20:52:21.860Z,51321.00
2022-10-07T20:54:50.202Z,51317.00
2022-10-07T20:57:23.872Z,51317.00
2022-10-07T20:59:51.353Z,51324.97
2022-10-07T21:02:21.502Z,51321.00
2022-10-07T21:04:48.675Z,51342.84
2022-10-07T21:07:17.213Z,51295.16
2022-10-07T21:09:44.857Z,51330.94
2022-10-07T21:12:15.794Z,51311.06
2022-10-07T21:14:44.205Z,51321.00
2022-10-07T21:17:11.972Z,51295.16
2022-10-07T21:19:40.082Z,51330.94
2022-10-07T21:22:07.934Z,51315.03
2022-10-07T21:24:35.399Z,51307.06
2022-10-07T21:27:06.124Z,51324.97
2022-10-07T21:29:38.922Z,51315.03
2022-10-07T21:32:06.454Z,51299.13
2022-10-07T21:34:33.497Z,51301.09
2022-10-07T21:37:00.658Z,51303.09
2022-10-07T21:39:27.767Z,51324.97
2022-10-07T21:41:54.943Z,51297.13
2022-10-07T21:44:22.001Z,51281.22
2022-10-07T21:46:49.194Z,51305.09
2022-10-07T21:49:17.170Z,51313.03
2022-10-07T21:51:44.742Z,51309.06
2022-10-07T21:54:14.265Z,51305.09
2022-10-07T21:56:43.670Z,51307.06
2022-10-07T21:59:11.367Z,51315.03
2022-10-07T22:01:38.854Z,51283.22
2022-10-07T22:04:07.236Z,51336.91
2022-10-07T22:06:52.714Z,51299.13
2022-10-07T22:09:21.389Z,51305.09
2022-10-07T22:11:50.294Z,51299.13
2022-10-07T22:14:18.931Z,51319.00
2022-10-07T22:16:48.376Z,51319.00
2022-10-07T22:19:17.439Z,51289.19
2022-10-07T22:21:45.766Z,51321.00
2022-10-07T22:24:13.900Z,51317.00
2022-10-07T22:26:48.187Z,51299.13
2022-10-07T22:29:17.614Z,51348.81
2022-10-07T22:31:45.169Z,51291.16
2022-10-07T22:34:32.759Z,51305.09
2022-10-07T22:37:00.022Z,51297.13
2022-10-07T22:39:28.857Z,51307.06
2022-10-07T22:41:57.109Z,51311.06
2022-10-07T22:44:28.713Z,51315.03
2022-10-07T22:46:56.709Z,51313.03
2022-10-07T22:49:28.620Z,51281.22
2022-10-07T22:51:58.360Z,51317.00
2022-10-07T22:54:26.292Z,51295.16
2022-10-07T22:56:53.492Z,51299.13
2022-10-07T22:59:21.254Z,51332.91
2022-10-07T23:01:48.250Z,51319.00
2022-10-07T23:04:15.275Z,51289.19
2022-10-07T23:06:42.511Z,51309.06
2022-10-07T23:09:09.594Z,51344.84
2022-10-07T23:11:36.606Z,51299.13
2022-10-07T23:14:04.395Z,51285.19
2022-10-07T23:16:32.439Z,51313.03
2022-10-07T23:19:00.061Z,51324.97
2022-10-07T23:21:30.103Z,51301.09
2022-10-07T23:24:05.946Z,51279.25
2022-10-07T23:26:35.549Z,51299.13
2022-10-07T23:29:04.302Z,51299.13
2022-10-07T23:31:32.817Z,51315.03
2022-10-07T23:34:01.931Z,51301.09
2022-10-07T23:36:29.635Z,51285.19
2022-10-07T23:38:59.449Z,51315.03
2022-10-07T23:41:30.077Z,51293.16
2022-10-07T23:44:00.083Z,51301.09
2022-10-07T23:46:28.797Z,51301.09
2022-10-07T23:48:56.372Z,51289.19
2022-10-07T23:51:27.859Z,51281.22
2022-10-07T23:54:00.373Z,51309.06
2022-10-07T23:56:27.661Z,51291.16
2022-10-07T23:58:54.746Z,51283.22
